Time;durP1;ratioP1;P1;durP2;ratioP2;P2;SDS_P1;SDS_P2;PMS_P1;PMS_P2;Temp;Humidity;BMP_temperature;BMP_pressure;BME280_temperature;BME280_humidity;BME280_pressure;Samples;Min_cycle;Max_cycle;Signal;HPM_P1;HPM_P2
2020/12/17 00:01:00;;;;;;;14.90;7.28;;;;;;;3.55;75.84;101810.45;1767510;80;21159;-63
2020/12/17 00:03:28;;;;;;;13.58;7.25;;;;;;;3.65;75.42;101813.00;1783916;80;21100;-63
2020/12/17 00:05:56;;;;;;;12.80;7.53;;;;;;;3.57;75.61;101815.30;1778501;80;21111;-63
2020/12/17 00:08:24;;;;;;;13.45;7.75;;;;;;;3.73;75.26;101818.52;1788269;80;21163;-63
2020/12/17 00:10:51;;;;;;;13.53;7.65;;;;;;;3.67;75.48;101813.07;1771400;80;21145;-63
2020/12/17 00:13:19;;;;;;;16.23;9.35;;;;;;;3.69;75.54;101810.12;1764582;80;21119;-63
2020/12/17 00:15:47;;;;;;;15.58;8.75;;;;;;;3.70;75.56;101818.41;1767441;80;21127;-63
2020/12/17 00:18:14;;;;;;;17.42;9.30;;;;;;;3.67;75.55;101811.34;1753540;80;21245;-64
2020/12/17 00:20:42;;;;;;;17.02;9.38;;;;;;;3.67;75.38;101814.38;1760534;80;21099;-63
2020/12/17 00:23:09;;;;;;;19.40;9.20;;;;;;;3.63;75.40;101811.17;1782220;80;21140;-63
2020/12/17 00:25:37;;;;;;;18.32;9.78;;;;;;;3.60;75.59;101804.11;1754661;80;21593;-63
2020/12/17 00:28:04;;;;;;;17.40;9.25;;;;;;;3.61;75.63;101801.11;1784378;80;21134;-63
2020/12/17 00:30:32;;;;;;;15.90;9.50;;;;;;;3.63;75.69;101805.97;1787046;80;21186;-64
2020/12/17 00:33:00;;;;;;;19.27;9.83;;;;;;;3.63;75.64;101803.36;1762668;80;21099;-63
2020/12/17 00:35:29;;;;;;;23.42;9.35;;;;;;;3.66;75.70;101799.15;1764281;80;21167;-63
2020/12/17 00:37:56;;;;;;;18.87;10.18;;;;;;;3.69;75.72;101799.27;1759000;80;21542;-63
2020/12/17 00:40:24;;;;;;;17.32;9.23;;;;;;;3.71;75.75;101795.44;1748693;80;21143;-63
2020/12/17 00:42:51;;;;;;;19.25;10.35;;;;;;;3.75;75.69;101793.43;1769566;81;21568;-63
2020/12/17 00:45:19;;;;;;;18.62;10.55;;;;;;;3.79;75.70;101795.30;1738767;81;21168;-63
2020/12/17 00:47:47;;;;;;;19.30;11.20;;;;;;;3.82;75.69;101792.81;1746013;81;21152;-63
2020/12/17 00:50:14;;;;;;;20.48;10.85;;;;;;;3.84;75.46;101795.06;1771653;81;21618;-63
2020/12/17 00:52:42;;;;;;;24.10;12.20;;;;;;;3.80;75.50;101802.71;1748211;81;21145;-63
2020/12/17 00:55:10;;;;;;;21.12;11.22;;;;;;;3.69;75.67;101814.89;1748113;81;21100;-63
2020/12/17 00:57:37;;;;;;;21.23;11.93;;;;;;;3.64;75.82;101804.70;1748465;81;21597;-63
2020/12/17 01:00:06;;;;;;;21.62;11.50;;;;;;;3.63;75.85;101805.97;1743944;81;21236;-63
2020/12/17 01:02:34;;;;;;;21.82;12.05;;;;;;;3.62;75.97;101805.06;1741997;81;21158;-63
2020/12/17 01:05:03;;;;;;;22.90;12.50;;;;;;;3.46;76.51;101813.98;1751193;81;21143;-63
2020/12/17 01:07:30;;;;;;;25.32;13.48;;;;;;;3.52;76.42;101799.91;1778721;81;21191;-64
2020/12/17 01:09:58;;;;;;;25.30;13.58;;;;;;;3.56;76.42;101800.91;1756582;81;21327;-63
2020/12/17 01:12:25;;;;;;;22.62;12.25;;;;;;;3.58;76.50;101807.06;1753735;81;21288;-63
2020/12/17 01:14:53;;;;;;;22.82;13.25;;;;;;;3.61;76.50;101802.41;1761361;81;21567;-63
2020/12/17 01:17:20;;;;;;;23.65;11.50;;;;;;;3.61;76.52;101808.92;1756676;81;21111;-63
2020/12/17 01:19:48;;;;;;;19.60;11.93;;;;;;;3.65;76.49;101805.19;1745593;81;21178;-63
2020/12/17 01:22:15;;;;;;;22.98;12.78;;;;;;;3.68;76.53;101800.09;1744650;81;21153;-63
2020/12/17 01:24:43;;;;;;;24.20;12.65;;;;;;;3.69;76.65;101797.97;1767534;81;21132;-63
2020/12/17 01:27:11;;;;;;;23.20;13.55;;;;;;;3.75;76.66;101797.34;1778459;80;21116;-63
2020/12/17 01:29:38;;;;;;;22.75;13.43;;;;;;;3.84;76.47;101796.80;1753107;81;21168;-63
2020/12/17 01:32:06;;;;;;;21.85;12.30;;;;;;;3.79;76.68;101800.94;1748330;81;21170;-63
2020/12/17 01:34:34;;;;;;;27.90;15.05;;;;;;;3.79;76.75;101791.39;1744702;81;21603;-63
2020/12/17 01:37:01;;;;;;;23.50;12.73;;;;;;;3.80;76.71;101793.59;1757511;81;21156;-64
2020/12/17 01:39:29;;;;;;;25.97;14.25;;;;;;;3.87;76.62;101788.66;1766698;80;21696;-63
2020/12/17 01:41:56;;;;;;;25.32;13.98;;;;;;;3.86;76.69;101793.41;1785656;79;21091;-63
2020/12/17 01:44:24;;;;;;;25.77;14.98;;;;;;;3.89;76.71;101795.25;1770688;80;21149;-63
2020/12/17 01:46:52;;;;;;;25.55;14.18;;;;;;;3.91;76.71;101786.18;1779986;80;21607;-63
2020/12/17 01:49:26;;;;;;;24.10;13.93;;;;;;;3.93;76.75;101784.52;1761867;80;21156;-63
2020/12/17 01:51:53;;;;;;;23.87;14.18;;;;;;;3.95;76.71;101779.86;1773491;80;21249;-61
2020/12/17 01:54:22;;;;;;;23.45;14.53;;;;;;;3.94;76.79;101775.87;1777152;80;21151;-60
2020/12/17 01:57:00;;;;;;;28.47;14.83;;;;;;;3.94;76.79;101772.87;1772953;80;21119;-61
2020/12/17 01:59:29;;;;;;;23.30;14.18;;;;;;;3.96;76.83;101771.61;1791288;80;21131;-61
2020/12/17 02:01:57;;;;;;;27.35;14.78;;;;;;;3.94;76.84;101768.97;1777642;80;21156;-62
2020/12/17 02:04:25;;;;;;;24.27;14.55;;;;;;;3.96;76.90;101775.52;1790040;80;21162;-61
2020/12/17 02:06:52;;;;;;;25.90;16.15;;;;;;;3.97;76.93;101771.69;1769538;79;21136;-62
2020/12/17 02:09:20;;;;;;;28.70;17.00;;;;;;;3.96;76.72;101769.91;1766448;80;21150;-62
2020/12/17 02:11:57;;;;;;;27.62;15.53;;;;;;;3.94;76.78;101775.48;1771122;80;21115;-63
2020/12/17 02:14:25;;;;;;;26.35;16.05;;;;;;;3.92;76.83;101770.62;1775431;80;21563;-62
2020/12/17 02:16:53;;;;;;;27.87;15.45;;;;;;;3.95;76.76;101773.75;1761348;80;21331;-62
2020/12/17 02:19:22;;;;;;;26.30;15.95;;;;;;;3.91;76.83;101777.97;1762004;80;21176;-62
2020/12/17 02:21:49;;;;;;;28.42;16.10;;;;;;;3.93;76.78;101778.91;1772717;80;22382;-61
2020/12/17 02:24:23;;;;;;;30.23;16.23;;;;;;;3.90;76.85;101783.09;1761835;80;21165;-62
2020/12/17 02:26:52;;;;;;;27.07;15.90;;;;;;;3.91;77.01;101783.17;1762018;80;21133;-62
2020/12/17 02:29:20;;;;;;;26.27;15.93;;;;;;;4.04;76.67;101781.00;1765138;80;21144;-62
2020/12/17 02:31:47;;;;;;;28.38;15.70;;;;;;;4.09;76.56;101784.67;1762019;80;21114;-65
2020/12/17 02:34:16;;;;;;;24.47;16.00;;;;;;;4.12;76.53;101784.39;1763753;80;21130;-62
2020/12/17 02:36:43;;;;;;;23.02;14.38;;;;;;;4.05;76.62;101781.08;1780728;80;21560;-62
2020/12/17 02:39:11;;;;;;;25.35;15.75;;;;;;;4.07;76.57;101782.03;1758820;79;21153;-62
2020/12/17 02:41:39;;;;;;;25.60;15.48;;;;;;;4.09;76.68;101782.06;1748589;81;21145;-62
2020/12/17 02:44:07;;;;;;;27.42;16.15;;;;;;;4.09;76.77;101786.88;1748088;81;21594;-62
2020/12/17 02:46:34;;;;;;;29.75;15.18;;;;;;;4.18;76.54;101785.02;1748944;81;21099;-62
2020/12/17 02:49:02;;;;;;;25.77;15.83;;;;;;;4.23;76.48;101791.29;1743689;81;21643;-63
2020/12/17 02:51:30;;;;;;;28.45;17.23;;;;;;;4.32;76.21;101790.73;1741714;81;21105;-62
2020/12/17 02:53:57;;;;;;;29.15;15.13;;;;;;;4.28;76.43;101796.66;1748548;81;21125;-62
2020/12/17 02:56:25;;;;;;;28.57;16.80;;;;;;;4.25;76.61;101798.75;1748309;81;21269;-62
2020/12/17 02:58:52;;;;;;;28.75;15.93;;;;;;;4.25;76.60;101795.23;1756046;81;21262;-62
2020/12/17 03:01:19;;;;;;;27.93;15.78;;;;;;;4.31;76.64;101797.67;1756408;81;21160;-62
2020/12/17 03:03:47;;;;;;;27.00;16.48;;;;;;;4.37;76.60;101802.21;1755225;81;21716;-63
2020/12/17 03:06:16;;;;;;;25.05;15.75;;;;;;;4.39;76.52;101797.94;1747928;81;21148;-62
2020/12/17 03:08:43;;;;;;;26.05;15.53;;;;;;;4.41;76.46;101797.58;1757477;81;21516;-62
2020/12/17 03:11:10;;;;;;;26.75;15.95;;;;;;;4.46;76.43;101799.03;1766026;81;21169;-62
2020/12/17 03:13:38;;;;;;;28.32;15.15;;;;;;;4.44;76.44;101800.70;1768358;81;21614;-62
2020/12/17 03:16:05;;;;;;;26.70;16.07;;;;;;;4.46;76.42;101802.55;1764761;81;21558;-62
2020/12/17 03:18:33;;;;;;;31.60;16.32;;;;;;;4.43;76.56;101805.05;1752277;81;21133;-63
2020/12/17 03:21:01;;;;;;;31.45;18.27;;;;;;;4.52;76.43;101799.26;1768922;81;21146;-62
2020/12/17 03:23:28;;;;;;;27.30;16.32;;;;;;;4.54;76.55;101803.24;1754482;81;21129;-63
2020/12/17 03:25:56;;;;;;;32.10;17.23;;;;;;;4.55;76.57;101802.41;1746415;81;21177;-63
2020/12/17 03:28:23;;;;;;;30.57;17.65;;;;;;;4.61;76.42;101797.41;1778760;81;21175;-62
2020/12/17 03:30:51;;;;;;;36.60;19.77;;;;;;;4.67;76.27;101798.03;1756717;81;21142;-62
2020/12/17 03:33:19;;;;;;;36.80;18.10;;;;;;;4.67;76.24;101801.52;1763462;81;21171;-62
2020/12/17 03:35:46;;;;;;;31.15;18.12;;;;;;;4.71;76.12;101798.61;1778688;81;21559;-62
2020/12/17 03:38:13;;;;;;;34.75;20.10;;;;;;;4.73;76.07;101797.81;1777062;80;21545;-63
2020/12/17 03:40:41;;;;;;;39.13;20.80;;;;;;;4.75;75.85;101800.06;1768074;80;21115;-64
2020/12/17 03:43:08;;;;;;;38.40;19.62;;;;;;;4.75;75.86;101801.80;1783762;80;21169;-63
2020/12/17 03:45:36;;;;;;;36.77;20.17;;;;;;;4.75;75.82;101797.89;1761257;80;21202;-63
2020/12/17 03:48:04;;;;;;;37.23;20.75;;;;;;;4.76;75.59;101795.31;1763761;80;21174;-62
2020/12/17 03:50:31;;;;;;;42.65;20.40;;;;;;;4.74;75.54;101797.42;1764861;80;21134;-63
2020/12/17 03:52:59;;;;;;;38.75;20.45;;;;;;;4.71;75.59;101792.97;1761883;80;21147;-62
2020/12/17 03:55:26;;;;;;;39.25;20.17;;;;;;;4.72;75.66;101795.17;1775001;80;21107;-64
2020/12/17 03:57:54;;;;;;;32.88;18.73;;;;;;;4.75;75.63;101793.98;1769539;79;21578;-63
2020/12/17 04:00:21;;;;;;;38.95;18.73;;;;;;;4.72;75.79;101796.47;1768573;80;21178;-63
2020/12/17 04:02:48;;;;;;;38.50;20.12;;;;;;;4.74;75.93;101798.72;1782547;80;21119;-62
2020/12/17 04:05:16;;;;;;;44.53;20.65;;;;;;;4.81;75.83;101798.10;1770587;80;21134;-63
2020/12/17 04:07:43;;;;;;;39.80;19.73;;;;;;;4.83;75.70;101796.84;1775610;80;21853;-62
2020/12/17 04:10:11;;;;;;;39.80;19.60;;;;;;;4.83;75.64;101797.74;1768124;80;21301;-62
2020/12/17 04:13:38;;;;;;;42.10;20.27;;;;;;;4.89;75.50;101795.31;1763393;80;21133;-63
2020/12/17 04:16:05;;;;;;;40.95;18.87;;;;;;;4.93;75.44;101800.23;1784446;80;21176;-62
2020/12/17 04:18:33;;;;;;;43.48;20.10;;;;;;;4.97;75.28;101794.28;1784442;80;21145;-63
2020/12/17 04:21:01;;;;;;;39.55;20.05;;;;;;;5.00;75.22;101797.00;1767830;80;21175;-63
2020/12/17 04:23:30;;;;;;;48.50;21.82;;;;;;;5.01;75.23;101792.25;1761561;80;21180;-62
2020/12/17 04:25:59;;;;;;;46.28;21.20;;;;;;;5.05;75.17;101797.14;1761795;80;21152;-63
2020/12/17 04:28:27;;;;;;;49.10;21.00;;;;;;;4.99;75.35;101803.05;1779434;80;21602;-63
2020/12/17 04:30:55;;;;;;;46.68;21.23;;;;;;;5.02;75.37;101804.47;1766228;80;21160;-63
2020/12/17 04:33:23;;;;;;;44.80;20.97;;;;;;;5.04;75.58;101802.80;1761490;80;21548;-63
2020/12/17 04:35:50;;;;;;;38.88;19.60;;;;;;;5.08;75.72;101805.08;1763282;80;21131;-63
2020/12/17 04:38:18;;;;;;;37.78;19.57;;;;;;;5.12;75.61;101806.95;1775596;80;21112;-63
2020/12/17 04:40:45;;;;;;;35.68;19.27;;;;;;;5.14;75.33;101809.59;1778635;81;21313;-63
2020/12/17 04:43:13;;;;;;;41.02;19.12;;;;;;;5.15;75.29;101808.77;1778951;80;21156;-63
2020/12/17 04:45:41;;;;;;;35.35;18.48;;;;;;;5.25;74.85;101810.84;1776298;81;21131;-63
2020/12/17 04:48:09;;;;;;;38.25;20.05;;;;;;;5.13;75.05;101817.86;1739776;81;21587;-63
2020/12/17 04:50:36;;;;;;;36.90;19.02;;;;;;;5.13;75.05;101815.25;1738783;81;21169;-62
2020/12/17 04:53:04;;;;;;;39.53;21.50;;;;;;;5.00;75.42;101819.19;1710395;83;21141;-62
2020/12/17 04:55:33;;;;;;;39.67;20.90;;;;;;;4.89;75.97;101817.48;1752957;81;21138;-62
2020/12/17 04:58:01;;;;;;;48.00;22.35;;;;;;;4.90;76.08;101818.39;1750809;80;21170;-62
2020/12/17 05:00:28;;;;;;;44.08;21.55;;;;;;;4.98;75.97;101821.25;1721968;81;21123;-62
2020/12/17 05:02:56;;;;;;;43.40;20.05;;;;;;;5.03;75.69;101820.59;1772964;80;21583;-63
2020/12/17 05:05:24;;;;;;;45.65;23.25;;;;;;;5.16;75.22;101828.41;1755367;81;21241;-63
2020/12/17 05:07:52;;;;;;;46.08;23.90;;;;;;;5.08;75.40;101829.00;1761629;81;21525;-63
2020/12/17 05:10:19;;;;;;;44.48;23.67;;;;;;;4.89;75.80;101834.45;1742666;81;21139;-63
2020/12/17 05:12:47;;;;;;;49.75;25.55;;;;;;;4.78;76.16;101835.82;1758169;81;21116;-63
2020/12/17 05:15:15;;;;;;;50.63;26.48;;;;;;;4.87;75.84;101842.64;1750372;81;21113;-63
2020/12/17 05:17:49;;;;;;;50.35;25.75;;;;;;;4.83;76.04;101842.09;1774447;81;21112;-63
2020/12/17 05:20:17;;;;;;;51.13;26.25;;;;;;;4.79;75.96;101833.69;1765034;81;21145;-63
2020/12/17 05:22:46;;;;;;;54.53;27.00;;;;;;;4.79;76.04;101836.69;1759425;81;21152;-63
2020/12/17 05:25:15;;;;;;;53.10;28.40;;;;;;;4.84;76.13;101833.43;1762217;80;21143;-62
2020/12/17 05:27:43;;;;;;;60.25;28.10;;;;;;;4.76;76.45;101834.45;1760004;81;21588;-63
2020/12/17 05:30:10;;;;;;;54.23;28.35;;;;;;;4.90;76.18;101835.35;1740941;81;21547;-63
2020/12/17 05:32:42;;;;;;;61.30;29.85;;;;;;;4.86;76.37;101839.55;1689051;83;21160;-63
2020/12/17 05:35:14;;;;;;;55.63;26.65;;;;;;;4.86;76.27;101842.59;1758305;81;21127;-62
2020/12/17 05:37:41;;;;;;;59.58;30.43;;;;;;;4.88;76.06;101844.84;1759962;80;21559;-63
2020/12/17 05:40:12;;;;;;;59.00;30.70;;;;;;;4.87;76.12;101844.38;1741117;81;21591;-62
2020/12/17 05:42:40;;;;;;;58.73;30.40;;;;;;;4.85;76.23;101846.05;1772402;80;21139;-62
2020/12/17 05:45:27;;;;;;;56.60;29.20;;;;;;;4.87;76.15;101843.94;1771898;80;21137;-63
2020/12/17 05:48:13;;;;;;;59.75;28.92;;;;;;;4.91;76.05;101844.95;1715548;83;21138;-62
2020/12/17 05:50:58;;;;;;;59.30;28.65;;;;;;;4.95;76.12;101845.53;1776828;79;21274;-63
2020/12/17 05:53:28;;;;;;;58.42;26.15;;;;;;;4.99;76.34;101843.50;1767037;79;21245;-64
2020/12/17 05:56:07;;;;;;;60.00;27.85;;;;;;;5.06;76.18;101846.80;1770939;80;21147;-64
2020/12/17 05:58:42;;;;;;;71.37;29.32;;;;;;;5.15;75.85;101847.52;1778920;80;21143;-63
2020/12/17 06:01:15;;;;;;;70.22;29.95;;;;;;;5.06;76.05;101845.89;1781542;80;21139;-63
2020/12/17 06:03:45;;;;;;;72.72;31.37;;;;;;;5.06;76.86;101850.71;1766343;80;21290;-66
2020/12/17 06:06:13;;;;;;;63.17;30.52;;;;;;;5.01;76.80;101846.16;1765366;80;21167;-64
2020/12/17 06:08:41;;;;;;;72.30;32.03;;;;;;;4.99;76.76;101846.52;1719182;83;21134;-64
2020/12/17 06:11:10;;;;;;;65.15;30.23;;;;;;;5.10;76.41;101849.48;1767658;79;21175;-64
2020/12/17 06:13:41;;;;;;;66.70;30.02;;;;;;;5.10;76.36;101845.56;1711277;83;21160;-63
2020/12/17 06:16:11;;;;;;;68.02;30.08;;;;;;;5.20;76.06;101850.27;1764009;80;21119;-63
2020/12/17 06:18:58;;;;;;;61.10;30.85;;;;;;;5.16;76.11;101851.00;1755436;80;21123;-64
2020/12/17 06:21:26;;;;;;;66.47;29.77;;;;;;;5.12;76.27;101850.02;1758742;80;21196;-65
2020/12/17 06:23:56;;;;;;;63.95;30.20;;;;;;;5.03;76.58;101849.30;1779924;80;21167;-65
2020/12/17 06:26:24;;;;;;;56.90;29.10;;;;;;;4.97;76.88;101858.62;1772413;80;21578;-63
2020/12/17 06:28:54;;;;;;;55.12;29.25;;;;;;;4.96;76.92;101850.32;1789259;80;21143;-64
2020/12/17 06:31:26;;;;;;;51.48;27.05;;;;;;;4.97;76.99;101852.09;1761000;80;21523;-64
2020/12/17 06:33:58;;;;;;;41.02;24.72;;;;;;;4.97;76.99;101859.52;1751073;80;21154;-63
2020/12/17 06:36:44;;;;;;;49.35;26.37;;;;;;;5.08;76.71;101855.09;1759885;80;21220;-63
2020/12/17 06:39:12;;;;;;;48.58;25.85;;;;;;;5.18;76.20;101859.77;1748700;80;21177;-63
2020/12/17 06:41:39;;;;;;;47.55;27.00;;;;;;;5.08;76.60;101862.50;1759137;81;21580;-64
2020/12/17 06:44:31;;;;;;;49.18;26.68;;;;;;;5.09;76.74;101856.84;1754696;81;21325;-63
2020/12/17 06:49:42;;;;;;;43.33;24.98;;;;;;;5.18;76.63;101863.69;1824107;77;22259;-61
2020/12/17 06:52:09;;;;;;;40.17;22.85;;;;;;;5.17;76.54;101866.73;1781162;80;21692;-61
2020/12/17 06:54:40;;;;;;;38.13;22.93;;;;;;;5.12;76.57;101865.68;1781767;80;21158;-62
2020/12/17 06:57:11;;;;;;;40.80;23.75;;;;;;;5.14;76.22;101870.54;1781847;80;21149;-63
2020/12/17 06:59:42;;;;;;;41.65;23.73;;;;;;;5.19;76.14;101869.38;1769276;80;21149;-63
2020/12/17 07:02:10;;;;;;;43.85;24.80;;;;;;;5.15;76.47;101871.41;1762271;80;21653;-63
2020/12/17 07:04:45;;;;;;;80.07;33.30;;;;;;;5.13;76.63;101872.68;1756971;80;21669;-63
2020/12/17 07:07:20;;;;;;;48.75;26.77;;;;;;;5.17;76.47;101873.25;1772981;80;21537;-63
2020/12/17 07:09:54;;;;;;;57.35;27.85;;;;;;;5.22;76.33;101878.62;1772873;80;21151;-63
2020/12/17 07:12:40;;;;;;;47.30;25.00;;;;;;;5.25;76.30;101875.24;1771364;80;21580;-63
2020/12/17 07:15:30;;;;;;;39.30;23.67;;;;;;;5.28;76.27;101875.34;1785142;80;21621;-62
2020/12/17 07:18:23;;;;;;;43.80;23.87;;;;;;;5.28;76.19;101871.00;1779231;80;21146;-62
2020/12/17 07:21:07;;;;;;;38.15;23.38;;;;;;;5.28;76.36;101873.61;1768069;80;21534;-62
2020/12/17 07:23:38;;;;;;;41.53;23.98;;;;;;;5.32;76.31;101878.10;1762024;80;21175;-62
2020/12/17 07:26:11;;;;;;;38.78;22.52;;;;;;;5.43;75.92;101872.35;1759684;80;21629;-63
2020/12/17 07:28:39;;;;;;;36.25;22.70;;;;;;;5.48;75.79;101868.17;1776873;80;21158;-63
2020/12/17 07:31:07;;;;;;;39.80;23.05;;;;;;;5.46;75.70;101875.94;1763973;80;21632;-64
2020/12/17 07:33:43;;;;;;;38.02;22.48;;;;;;;5.44;75.86;101871.08;1771347;80;21150;-62
2020/12/17 07:36:11;;;;;;;40.95;22.87;;;;;;;5.49;75.50;101876.04;1775896;80;21148;-63
2020/12/17 07:38:39;;;;;;;39.78;23.12;;;;;;;5.48;75.37;101878.62;1784668;80;21154;-62
2020/12/17 07:41:25;;;;;;;37.77;22.97;;;;;;;5.50;75.34;101871.28;1788261;80;21142;-62
2020/12/17 07:43:53;;;;;;;38.73;22.05;;;;;;;5.45;75.64;101878.08;1723823;82;21186;-62
2020/12/17 07:46:41;;;;;;;34.53;21.90;;;;;;;5.35;75.98;101878.61;1732776;82;21171;-62
2020/12/17 07:49:24;;;;;;;38.45;22.30;;;;;;;5.35;76.06;101878.20;1716624;83;21573;-62
2020/12/17 07:51:52;;;;;;;37.95;22.65;;;;;;;5.35;76.04;101883.83;1723178;83;21547;-63
2020/12/17 07:54:21;;;;;;;40.78;25.37;;;;;;;5.29;76.35;101883.22;1770194;80;21575;-61
2020/12/17 07:57:00;;;;;;;38.65;23.22;;;;;;;5.33;76.46;101894.23;1756508;80;21126;-61
2020/12/17 07:59:27;;;;;;;37.55;22.55;;;;;;;5.36;76.34;101886.91;1773268;81;21528;-63
2020/12/17 08:02:03;;;;;;;40.45;23.77;;;;;;;5.38;76.32;101889.59;1761887;81;21133;-62
2020/12/17 08:04:30;;;;;;;40.48;23.02;;;;;;;5.34;76.60;101891.19;1764966;81;21627;-63
2020/12/17 08:07:08;;;;;;;43.75;25.15;;;;;;;5.35;76.72;101887.34;1763575;81;21179;-64
2020/12/17 08:09:36;;;;;;;39.13;22.52;;;;;;;5.39;76.65;101887.02;1713785;82;21131;-62
2020/12/17 08:12:04;;;;;;;41.55;23.98;;;;;;;5.39;76.74;101888.75;1761559;80;21115;-62
2020/12/17 08:14:32;;;;;;;42.43;24.12;;;;;;;5.39;76.82;101884.41;1758329;80;21134;-62
2020/12/17 08:17:07;;;;;;;43.42;23.50;;;;;;;5.60;76.50;101881.61;1770372;80;21534;-62
2020/12/17 08:19:34;;;;;;;39.20;22.45;;;;;;;6.04;75.01;101885.60;1761676;81;21139;-62
2020/12/17 08:22:03;;;;;;;38.38;22.32;;;;;;;5.59;76.17;101873.30;1756951;81;21168;-63
2020/12/17 08:24:33;;;;;;;39.73;22.42;;;;;;;5.56;76.67;101878.86;1748291;81;21161;-63
2020/12/17 08:27:01;;;;;;;44.13;23.98;;;;;;;5.65;76.51;101879.16;1751426;80;21096;-64
2020/12/17 08:29:30;;;;;;;39.90;22.90;;;;;;;5.62;76.64;101871.22;1754649;80;21120;-61
2020/12/17 08:31:57;;;;;;;38.65;21.80;;;;;;;5.63;76.85;101867.34;1765901;80;21280;-63
2020/12/17 08:34:25;;;;;;;43.30;22.98;;;;;;;5.75;76.72;101865.96;1714140;81;21127;-62
2020/12/17 08:36:53;;;;;;;38.13;22.42;;;;;;;5.74;76.75;101864.19;1754963;81;21107;-62
2020/12/17 08:39:21;;;;;;;41.10;22.60;;;;;;;5.69;76.89;101857.92;1750559;80;21158;-62
2020/12/17 08:41:52;;;;;;;39.00;23.47;;;;;;;5.69;76.80;101854.01;1758672;81;21131;-62
2020/12/17 08:44:27;;;;;;;42.88;23.18;;;;;;;5.79;76.49;101856.08;1757948;81;21266;-63
2020/12/17 08:47:02;;;;;;;35.40;21.40;;;;;;;5.78;76.56;101856.48;1765278;81;21104;-63
2020/12/17 08:49:30;;;;;;;35.45;21.00;;;;;;;5.77;76.69;101854.70;1754229;81;21165;-62
2020/12/17 08:51:57;;;;;;;36.40;22.42;;;;;;;5.73;76.84;101852.87;1768714;81;21137;-62
2020/12/17 08:54:32;;;;;;;36.48;21.93;;;;;;;5.74;76.94;101859.83;1755329;81;21633;-62
2020/12/17 08:57:05;;;;;;;39.03;21.30;;;;;;;5.82;76.80;101854.87;1771185;81;21146;-61
2020/12/17 08:59:32;;;;;;;39.42;21.07;;;;;;;5.84;76.81;101858.82;1774459;80;21168;-62
2020/12/17 09:02:00;;;;;;;35.73;20.20;;;;;;;5.92;76.61;101857.34;1774268;81;21264;-63
2020/12/17 09:04:29;;;;;;;35.30;22.32;;;;;;;5.94;76.59;101853.05;1763970;80;21135;-63
2020/12/17 09:06:59;;;;;;;33.50;20.57;;;;;;;5.95;76.68;101854.41;1748785;80;21123;-63
2020/12/17 09:09:29;;;;;;;35.00;20.72;;;;;;;6.00;76.60;101848.05;1763825;81;21701;-62
2020/12/17 09:11:59;;;;;;;41.02;22.55;;;;;;;5.90;76.77;101857.70;1754285;80;21689;-62
2020/12/17 09:14:29;;;;;;;38.83;22.55;;;;;;;5.90;76.90;101853.38;1761169;81;21162;-62
2020/12/17 09:17:17;;;;;;;35.35;21.35;;;;;;;5.89;76.98;101850.30;1766010;80;21135;-63
2020/12/17 09:19:46;;;;;;;38.05;21.97;;;;;;;5.89;77.14;101854.22;1708828;82;21172;-63
2020/12/17 09:22:20;;;;;;;38.67;21.60;;;;;;;5.95;76.89;101853.11;1689269;84;21273;-62
2020/12/17 09:24:50;;;;;;;34.58;22.35;;;;;;;6.06;76.79;101847.33;1774756;81;21281;-63
2020/12/17 09:27:28;;;;;;;34.18;21.77;;;;;;;6.03;76.87;101848.54;1773464;80;21147;-63
2020/12/17 09:30:18;;;;;;;32.98;21.65;;;;;;;6.08;76.91;101852.19;1758363;81;21569;-63
2020/12/17 09:33:01;;;;;;;34.90;21.97;;;;;;;6.18;76.74;101852.92;1767383;80;21117;-62
2020/12/17 09:35:34;;;;;;;36.42;21.05;;;;;;;6.21;76.81;101849.50;1760361;81;21116;-62
2020/12/17 09:38:07;;;;;;;36.42;22.20;;;;;;;6.24;76.81;101850.91;1753362;81;21119;-63
2020/12/17 09:40:44;;;;;;;32.63;21.93;;;;;;;6.28;76.82;101844.92;1756998;81;21119;-62
2020/12/17 09:43:14;;;;;;;34.43;22.60;;;;;;;6.38;76.54;101847.41;1758193;81;21170;-62
2020/12/17 09:45:48;;;;;;;34.40;20.60;;;;;;;6.45;76.37;101847.14;1757326;80;21626;-63
2020/12/17 09:48:26;;;;;;;35.80;22.22;;;;;;;6.45;76.40;101846.71;1778906;80;21459;-62
2020/12/17 09:51:00;;;;;;;33.25;21.33;;;;;;;6.47;76.51;101848.95;1772302;80;21554;-63
2020/12/17 09:53:37;;;;;;;33.13;20.72;;;;;;;6.54;76.44;101844.80;1762482;80;23051;-62
2020/12/17 09:56:15;;;;;;;35.10;20.62;;;;;;;6.52;76.46;101843.86;1758465;81;21143;-63
2020/12/17 09:58:44;;;;;;;32.70;20.88;;;;;;;6.48;76.66;101843.31;1754589;81;21554;-62
2020/12/17 10:01:13;;;;;;;33.02;21.00;;;;;;;6.47;76.67;101848.95;1742428;81;21631;-62
2020/12/17 10:03:41;;;;;;;36.00;22.27;;;;;;;6.54;76.60;101844.36;1752575;81;21170;-63
2020/12/17 10:06:08;;;;;;;35.33;22.00;;;;;;;6.59;76.49;101842.30;1774858;81;21608;-64
2020/12/17 10:08:36;;;;;;;35.65;22.95;;;;;;;6.61;76.49;101835.38;1757762;81;21288;-63
2020/12/17 10:11:06;;;;;;;34.38;21.75;;;;;;;6.62;76.45;101838.05;1757075;81;21134;-63
2020/12/17 10:13:35;;;;;;;33.48;20.50;;;;;;;6.60;76.53;101833.20;1749937;80;21167;-64
2020/12/17 10:16:03;;;;;;;35.05;22.15;;;;;;;6.62;76.54;101834.13;1744843;81;21139;-62
2020/12/17 10:18:31;;;;;;;33.98;21.00;;;;;;;6.65;76.60;101830.70;1763547;80;21126;-63
2020/12/17 10:21:00;;;;;;;36.93;21.93;;;;;;;6.68;76.51;101833.39;1749523;81;21116;-63
2020/12/17 10:23:28;;;;;;;34.35;21.62;;;;;;;6.70;76.47;101825.17;1747911;81;21583;-63
2020/12/17 10:25:55;;;;;;;31.65;20.88;;;;;;;6.73;76.46;101827.87;1751893;81;21601;-63
2020/12/17 10:28:24;;;;;;;32.95;21.35;;;;;;;6.70;76.49;101822.11;1763094;81;21323;-63
2020/12/17 10:30:52;;;;;;;34.27;18.98;;;;;;;6.71;76.50;101817.78;1771365;81;21487;-63
2020/12/17 10:33:19;;;;;;;34.27;21.17;;;;;;;6.71;76.61;101821.70;1760546;80;21575;-63
2020/12/17 10:35:48;;;;;;;35.38;20.88;;;;;;;6.75;76.51;101813.50;1763549;81;21542;-62
2020/12/17 10:38:15;;;;;;;35.38;20.80;;;;;;;6.77;76.54;101815.73;1767426;80;21587;-63
2020/12/17 10:40:56;;;;;;;33.20;20.70;;;;;;;6.79;76.57;101807.51;1807881;77;21134;-62
2020/12/17 10:43:23;;;;;;;36.50;22.95;;;;;;;6.83;76.57;101803.72;1779413;79;21137;-62
2020/12/17 10:45:51;;;;;;;34.20;21.60;;;;;;;6.82;76.71;101803.26;1789322;79;21158;-62
2020/12/17 10:48:19;;;;;;;37.80;23.05;;;;;;;6.85;76.92;101807.23;1787293;79;21618;-63
2020/12/17 10:50:48;;;;;;;35.70;22.90;;;;;;;6.89;76.89;101806.00;1793790;79;21743;-62
2020/12/17 10:53:16;;;;;;;32.70;21.82;;;;;;;7.01;76.47;101802.41;1803806;79;21095;-63
2020/12/17 10:55:44;;;;;;;33.80;20.60;;;;;;;6.99;76.51;101806.30;1805962;79;21139;-63
2020/12/17 10:58:12;;;;;;;35.40;22.42;;;;;;;6.97;76.69;101801.86;1804834;79;21127;-63
2020/12/17 11:00:40;;;;;;;33.40;21.77;;;;;;;6.97;76.54;101801.86;1798917;78;21456;-62
2020/12/17 11:03:07;;;;;;;31.52;20.80;;;;;;;7.00;76.46;101801.94;1796414;79;21526;-63
2020/12/17 11:05:36;;;;;;;33.85;21.60;;;;;;;7.03;76.35;101793.30;1785347;79;21568;-63
2020/12/17 11:08:03;;;;;;;30.12;20.85;;;;;;;7.03;76.40;101797.22;1796048;79;21523;-63
2020/12/17 11:10:31;;;;;;;34.95;20.62;;;;;;;6.99;76.24;101802.38;1792248;79;21507;-62
2020/12/17 11:13:01;;;;;;;32.23;20.02;;;;;;;6.96;76.24;101794.85;1791920;79;21131;-62
2020/12/17 11:15:29;;;;;;;37.10;21.70;;;;;;;6.94;76.34;101795.23;1778843;79;21113;-63
2020/12/17 11:17:56;;;;;;;32.17;21.25;;;;;;;6.88;76.51;101789.84;1801234;79;21095;-62
2020/12/17 11:20:24;;;;;;;37.30;21.37;;;;;;;6.96;76.33;101784.38;1786149;79;21151;-62
2020/12/17 11:22:52;;;;;;;37.80;22.75;;;;;;;6.96;76.21;101784.38;1800344;79;21558;-62
2020/12/17 11:25:19;;;;;;;34.63;21.97;;;;;;;6.97;76.25;101783.13;1795475;79;21150;-62
2020/12/17 11:27:49;;;;;;;34.38;21.68;;;;;;;6.92;76.30;101786.45;1785300;79;21130;-62
2020/12/17 11:30:17;;;;;;;29.82;20.88;;;;;;;6.94;76.24;101779.13;1800630;79;21558;-62
2020/12/17 11:32:44;;;;;;;28.35;18.95;;;;;;;6.87;76.37;101782.42;1779991;79;21712;-62